sensor_id;sensor_type;location;lat;lon;timestamp;P1;durP1;ratioP1;P2;durP2;ratioP2
14167;SDS011;7163;50.626;12.922;2023-04-10T00:03:24;30.47;;;17.13;;
14167;SDS011;7163;50.626;12.922;2023-04-10T00:08:26;33.00;;;17.23;;
14167;SDS011;7163;50.626;12.922;2023-04-10T00:13:26;32.87;;;18.03;;
14167;SDS011;7163;50.626;12.922;2023-04-10T00:18:27;32.73;;;17.37;;
14167;SDS011;7163;50.626;12.922;2023-04-10T00:23:28;32.57;;;17.77;;
14167;SDS011;7163;50.626;12.922;2023-04-10T00:28:33;31.30;;;17.20;;
14167;SDS011;7163;50.626;12.922;2023-04-10T00:33:37;32.20;;;17.70;;
14167;SDS011;7163;50.626;12.922;2023-04-10T00:38:37;35.13;;;19.87;;
14167;SDS011;7163;50.626;12.922;2023-04-10T00:43:38;36.87;;;18.93;;
14167;SDS011;7163;50.626;12.922;2023-04-10T00:48:38;34.23;;;18.40;;
14167;SDS011;7163;50.626;12.922;2023-04-10T00:53:39;31.97;;;17.53;;
14167;SDS011;7163;50.626;12.922;2023-04-10T00:58:39;31.30;;;17.77;;
14167;SDS011;7163;50.626;12.922;2023-04-10T01:08:52;31.20;;;17.53;;
14167;SDS011;7163;50.626;12.922;2023-04-10T01:14:04;36.67;;;19.17;;
14167;SDS011;7163;50.626;12.922;2023-04-10T01:19:31;28.60;;;16.50;;
14167;SDS011;7163;50.626;12.922;2023-04-10T01:25:00;32.83;;;18.77;;
14167;SDS011;7163;50.626;12.922;2023-04-10T01:30:13;35.43;;;17.37;;
14167;SDS011;7163;50.626;12.922;2023-04-10T01:35:15;31.30;;;17.60;;
14167;SDS011;7163;50.626;12.922;2023-04-10T01:40:16;33.33;;;18.50;;
14167;SDS011;7163;50.626;12.922;2023-04-10T01:45:19;32.47;;;18.27;;
14167;SDS011;7163;50.626;12.922;2023-04-10T01:50:22;33.40;;;18.67;;
14167;SDS011;7163;50.626;12.922;2023-04-10T01:55:23;34.37;;;18.17;;
14167;SDS011;7163;50.626;12.922;2023-04-10T02:00:24;33.33;;;17.50;;
14167;SDS011;7163;50.626;12.922;2023-04-10T02:05:29;32.10;;;16.93;;
14167;SDS011;7163;50.626;12.922;2023-04-10T02:10:49;29.97;;;16.57;;
14167;SDS011;7163;50.626;12.922;2023-04-10T02:15:51;39.37;;;19.27;;
14167;SDS011;7163;50.626;12.922;2023-04-10T02:20:54;34.33;;;18.17;;
14167;SDS011;7163;50.626;12.922;2023-04-10T02:25:55;31.73;;;18.33;;
14167;SDS011;7163;50.626;12.922;2023-04-10T02:30:57;34.40;;;18.40;;
14167;SDS011;7163;50.626;12.922;2023-04-10T02:35:59;34.43;;;18.53;;
14167;SDS011;7163;50.626;12.922;2023-04-10T02:41:00;36.80;;;20.03;;
14167;SDS011;7163;50.626;12.922;2023-04-10T02:46:00;34.67;;;18.20;;
14167;SDS011;7163;50.626;12.922;2023-04-10T02:51:01;35.10;;;18.30;;
14167;SDS011;7163;50.626;12.922;2023-04-10T02:56:01;40.67;;;19.17;;
14167;SDS011;7163;50.626;12.922;2023-04-10T03:01:03;34.47;;;18.57;;
14167;SDS011;7163;50.626;12.922;2023-04-10T03:06:07;40.50;;;18.67;;
14167;SDS011;7163;50.626;12.922;2023-04-10T03:11:08;35.10;;;18.97;;
14167;SDS011;7163;50.626;12.922;2023-04-10T03:16:08;45.80;;;24.20;;
14167;SDS011;7163;50.626;12.922;2023-04-10T03:21:09;35.70;;;18.73;;
14167;SDS011;7163;50.626;12.922;2023-04-10T03:26:11;35.13;;;18.57;;
14167;SDS011;7163;50.626;12.922;2023-04-10T03:31:11;31.43;;;18.23;;
14167;SDS011;7163;50.626;12.922;2023-04-10T03:36:11;36.03;;;18.50;;
14167;SDS011;7163;50.626;12.922;2023-04-10T03:41:12;35.23;;;18.77;;
14167;SDS011;7163;50.626;12.922;2023-04-10T03:46:12;35.63;;;18.60;;
14167;SDS011;7163;50.626;12.922;2023-04-10T03:51:13;35.30;;;19.03;;
14167;SDS011;7163;50.626;12.922;2023-04-10T03:56:13;34.33;;;17.67;;
14167;SDS011;7163;50.626;12.922;2023-04-10T04:01:13;33.60;;;16.40;;
14167;SDS011;7163;50.626;12.922;2023-04-10T04:06:14;33.67;;;17.57;;
14167;SDS011;7163;50.626;12.922;2023-04-10T04:11:14;31.83;;;17.73;;
14167;SDS011;7163;50.626;12.922;2023-04-10T04:16:15;37.40;;;18.47;;
14167;SDS011;7163;50.626;12.922;2023-04-10T04:21:15;34.17;;;18.53;;
14167;SDS011;7163;50.626;12.922;2023-04-10T04:26:16;34.60;;;18.57;;
14167;SDS011;7163;50.626;12.922;2023-04-10T04:31:16;32.60;;;17.53;;
14167;SDS011;7163;50.626;12.922;2023-04-10T04:36:16;32.27;;;18.03;;
14167;SDS011;7163;50.626;12.922;2023-04-10T04:41:17;59.07;;;32.47;;
14167;SDS011;7163;50.626;12.922;2023-04-10T04:46:18;38.63;;;19.53;;
14167;SDS011;7163;50.626;12.922;2023-04-10T04:51:18;43.47;;;23.63;;
14167;SDS011;7163;50.626;12.922;2023-04-10T04:56:19;41.73;;;20.10;;
14167;SDS011;7163;50.626;12.922;2023-04-10T05:01:19;35.73;;;18.07;;
14167;SDS011;7163;50.626;12.922;2023-04-10T05:06:20;34.13;;;18.00;;
14167;SDS011;7163;50.626;12.922;2023-04-10T05:11:21;42.50;;;20.97;;
14167;SDS011;7163;50.626;12.922;2023-04-10T05:16:22;42.93;;;20.77;;
14167;SDS011;7163;50.626;12.922;2023-04-10T05:21:22;39.50;;;20.07;;
14167;SDS011;7163;50.626;12.922;2023-04-10T05:26:23;38.70;;;20.90;;
14167;SDS011;7163;50.626;12.922;2023-04-10T05:31:23;41.13;;;23.00;;
14167;SDS011;7163;50.626;12.922;2023-04-10T05:36:23;41.23;;;21.77;;
14167;SDS011;7163;50.626;12.922;2023-04-10T05:41:27;35.00;;;19.93;;
14167;SDS011;7163;50.626;12.922;2023-04-10T05:46:27;39.93;;;19.63;;
14167;SDS011;7163;50.626;12.922;2023-04-10T05:51:27;42.97;;;23.30;;
14167;SDS011;7163;50.626;12.922;2023-04-10T05:56:28;44.10;;;24.63;;
14167;SDS011;7163;50.626;12.922;2023-04-10T06:01:28;38.53;;;21.33;;
14167;SDS011;7163;50.626;12.922;2023-04-10T06:06:29;42.07;;;22.47;;
14167;SDS011;7163;50.626;12.922;2023-04-10T06:11:30;40.17;;;22.30;;
14167;SDS011;7163;50.626;12.922;2023-04-10T06:16:30;63.93;;;33.70;;
14167;SDS011;7163;50.626;12.922;2023-04-10T06:21:31;87.17;;;43.90;;
14167;SDS011;7163;50.626;12.922;2023-04-10T06:26:31;62.70;;;32.50;;
14167;SDS011;7163;50.626;12.922;2023-04-10T06:31:32;48.63;;;26.73;;
14167;SDS011;7163;50.626;12.922;2023-04-10T06:41:43;52.17;;;26.70;;
14167;SDS011;7163;50.626;12.922;2023-04-10T06:46:43;51.37;;;28.07;;
14167;SDS011;7163;50.626;12.922;2023-04-10T07:02:04;49.40;;;28.43;;
14167;SDS011;7163;50.626;12.922;2023-04-10T09:00:50;13.77;;;10.57;;
14167;SDS011;7163;50.626;12.922;2023-04-10T09:05:51;13.23;;;9.93;;
14167;SDS011;7163;50.626;12.922;2023-04-10T09:10:52;13.60;;;9.23;;
14167;SDS011;7163;50.626;12.922;2023-04-10T09:26:23;12.35;;;8.00;;
14167;SDS011;7163;50.626;12.922;2023-04-10T09:31:34;10.68;;;7.53;;
14167;SDS011;7163;50.626;12.922;2023-04-10T09:46:57;11.68;;;8.20;;
14167;SDS011;7163;50.626;12.922;2023-04-10T09:57:08;8.35;;;6.47;;
14167;SDS011;7163;50.626;12.922;2023-04-10T10:02:09;9.80;;;6.38;;
14167;SDS011;7163;50.626;12.922;2023-04-10T10:07:11;10.82;;;6.00;;
14167;SDS011;7163;50.626;12.922;2023-04-10T10:12:13;9.02;;;6.18;;
14167;SDS011;7163;50.626;12.922;2023-04-10T10:17:19;10.35;;;7.22;;
14167;SDS011;7163;50.626;12.922;2023-04-10T10:22:21;9.13;;;6.40;;
14167;SDS011;7163;50.626;12.922;2023-04-10T10:27:24;8.20;;;6.57;;
14167;SDS011;7163;50.626;12.922;2023-04-10T10:32:27;7.93;;;5.65;;
14167;SDS011;7163;50.626;12.922;2023-04-10T10:37:29;9.10;;;6.10;;
14167;SDS011;7163;50.626;12.922;2023-04-10T10:42:32;11.13;;;6.45;;
14167;SDS011;7163;50.626;12.922;2023-04-10T10:47:37;7.90;;;5.63;;
14167;SDS011;7163;50.626;12.922;2023-04-10T10:52:41;6.60;;;5.15;;
14167;SDS011;7163;50.626;12.922;2023-04-10T10:57:47;7.47;;;5.15;;
14167;SDS011;7163;50.626;12.922;2023-04-10T11:08:43;7.25;;;5.60;;
14167;SDS011;7163;50.626;12.922;2023-04-10T11:24:01;7.32;;;5.63;;
14167;SDS011;7163;50.626;12.922;2023-04-10T11:29:03;8.35;;;6.07;;
14167;SDS011;7163;50.626;12.922;2023-04-10T11:34:06;8.75;;;6.10;;
14167;SDS011;7163;50.626;12.922;2023-04-10T11:39:11;8.55;;;5.65;;
14167;SDS011;7163;50.626;12.922;2023-04-10T11:49:17;7.25;;;5.55;;
14167;SDS011;7163;50.626;12.922;2023-04-10T11:54:19;8.77;;;6.40;;
14167;SDS011;7163;50.626;12.922;2023-04-10T11:59:24;7.82;;;6.07;;
14167;SDS011;7163;50.626;12.922;2023-04-10T12:04:25;8.32;;;5.57;;
14167;SDS011;7163;50.626;12.922;2023-04-10T12:09:26;8.75;;;6.03;;
14167;SDS011;7163;50.626;12.922;2023-04-10T12:14:30;8.35;;;6.25;;
14167;SDS011;7163;50.626;12.922;2023-04-10T12:19:39;8.98;;;6.63;;
14167;SDS011;7163;50.626;12.922;2023-04-10T12:24:40;7.68;;;5.80;;
14167;SDS011;7163;50.626;12.922;2023-04-10T12:29:41;7.60;;;5.15;;
14167;SDS011;7163;50.626;12.922;2023-04-10T12:34:48;8.65;;;6.60;;
14167;SDS011;7163;50.626;12.922;2023-04-10T12:39:52;8.80;;;6.32;;
14167;SDS011;7163;50.626;12.922;2023-04-10T12:45:05;8.73;;;5.75;;
14167;SDS011;7163;50.626;12.922;2023-04-10T12:50:09;6.15;;;5.47;;
14167;SDS011;7163;50.626;12.922;2023-04-10T12:55:15;7.50;;;5.78;;
14167;SDS011;7163;50.626;12.922;2023-04-10T13:00:17;8.57;;;5.50;;
14167;SDS011;7163;50.626;12.922;2023-04-10T13:05:18;7.15;;;5.70;;
14167;SDS011;7163;50.626;12.922;2023-04-10T13:10:20;8.20;;;5.63;;
14167;SDS011;7163;50.626;12.922;2023-04-10T13:15:21;7.32;;;5.85;;
14167;SDS011;7163;50.626;12.922;2023-04-10T13:20:22;7.95;;;5.10;;
14167;SDS011;7163;50.626;12.922;2023-04-10T13:25:22;7.55;;;5.88;;
14167;SDS011;7163;50.626;12.922;2023-04-10T13:30:23;7.22;;;5.55;;
14167;SDS011;7163;50.626;12.922;2023-04-10T13:35:23;6.85;;;5.65;;
14167;SDS011;7163;50.626;12.922;2023-04-10T13:40:23;6.72;;;5.50;;
14167;SDS011;7163;50.626;12.922;2023-04-10T13:45:24;7.03;;;5.70;;
14167;SDS011;7163;50.626;12.922;2023-04-10T13:50:24;7.95;;;5.90;;
14167;SDS011;7163;50.626;12.922;2023-04-10T13:55:25;6.82;;;5.50;;
14167;SDS011;7163;50.626;12.922;2023-04-10T14:00:25;8.40;;;5.88;;
14167;SDS011;7163;50.626;12.922;2023-04-10T14:05:26;7.32;;;5.65;;
14167;SDS011;7163;50.626;12.922;2023-04-10T14:10:30;7.43;;;5.53;;
14167;SDS011;7163;50.626;12.922;2023-04-10T14:15:30;6.85;;;5.35;;
14167;SDS011;7163;50.626;12.922;2023-04-10T14:20:31;6.75;;;5.35;;
14167;SDS011;7163;50.626;12.922;2023-04-10T14:25:32;6.28;;;5.10;;
14167;SDS011;7163;50.626;12.922;2023-04-10T14:30:32;6.72;;;5.43;;
14167;SDS011;7163;50.626;12.922;2023-04-10T14:35:33;7.65;;;6.00;;
14167;SDS011;7163;50.626;12.922;2023-04-10T14:40:37;19.83;;;17.08;;
14167;SDS011;7163;50.626;12.922;2023-04-10T14:45:39;6.18;;;4.90;;
14167;SDS011;7163;50.626;12.922;2023-04-10T14:50:40;15.23;;;11.48;;
14167;SDS011;7163;50.626;12.922;2023-04-10T14:55:40;55.30;;;41.08;;
14167;SDS011;7163;50.626;12.922;2023-04-10T15:00:40;17.13;;;13.93;;
14167;SDS011;7163;50.626;12.922;2023-04-10T15:05:42;5.28;;;4.13;;
14167;SDS011;7163;50.626;12.922;2023-04-10T15:10:43;9.18;;;5.80;;
14167;SDS011;7163;50.626;12.922;2023-04-10T15:15:44;16.40;;;13.15;;
14167;SDS011;7163;50.626;12.922;2023-04-10T15:20:44;23.77;;;18.40;;
14167;SDS011;7163;50.626;12.922;2023-04-10T15:25:45;6.20;;;5.03;;
14167;SDS011;7163;50.626;12.922;2023-04-10T15:30:45;5.38;;;4.38;;
14167;SDS011;7163;50.626;12.922;2023-04-10T15:35:48;6.28;;;5.35;;
14167;SDS011;7163;50.626;12.922;2023-04-10T15:40:50;6.05;;;4.53;;
14167;SDS011;7163;50.626;12.922;2023-04-10T15:45:50;6.63;;;5.05;;
14167;SDS011;7163;50.626;12.922;2023-04-10T15:50:51;12.02;;;8.88;;
14167;SDS011;7163;50.626;12.922;2023-04-10T15:55:52;10.98;;;7.78;;
14167;SDS011;7163;50.626;12.922;2023-04-10T16:00:52;8.13;;;6.00;;
14167;SDS011;7163;50.626;12.922;2023-04-10T16:05:53;7.65;;;5.60;;
14167;SDS011;7163;50.626;12.922;2023-04-10T16:10:55;7.93;;;5.55;;
14167;SDS011;7163;50.626;12.922;2023-04-10T16:15:55;8.27;;;6.10;;
14167;SDS011;7163;50.626;12.922;2023-04-10T16:20:56;8.75;;;6.40;;
14167;SDS011;7163;50.626;12.922;2023-04-10T16:25:56;14.38;;;11.23;;
14167;SDS011;7163;50.626;12.922;2023-04-10T16:30:56;17.05;;;10.63;;
14167;SDS011;7163;50.626;12.922;2023-04-10T16:35:57;7.63;;;6.32;;
14167;SDS011;7163;50.626;12.922;2023-04-10T16:40:57;9.70;;;6.65;;
14167;SDS011;7163;50.626;12.922;2023-04-10T16:46:01;11.25;;;8.43;;
14167;SDS011;7163;50.626;12.922;2023-04-10T16:51:01;24.95;;;16.40;;
14167;SDS011;7163;50.626;12.922;2023-04-10T16:56:05;13.35;;;8.85;;
14167;SDS011;7163;50.626;12.922;2023-04-10T17:01:15;57.63;;;32.67;;
14167;SDS011;7163;50.626;12.922;2023-04-10T17:06:17;19.13;;;13.30;;
14167;SDS011;7163;50.626;12.922;2023-04-10T17:11:17;27.23;;;15.87;;
14167;SDS011;7163;50.626;12.922;2023-04-10T17:16:18;20.20;;;13.37;;
14167;SDS011;7163;50.626;12.922;2023-04-10T17:21:18;19.87;;;13.70;;
14167;SDS011;7163;50.626;12.922;2023-04-10T17:31:29;10.40;;;7.30;;
14167;SDS011;7163;50.626;12.922;2023-04-10T17:36:30;46.40;;;30.07;;
14167;SDS011;7163;50.626;12.922;2023-04-10T17:41:31;14.53;;;10.13;;
14167;SDS011;7163;50.626;12.922;2023-04-10T17:46:31;15.67;;;10.67;;
14167;SDS011;7163;50.626;12.922;2023-04-10T17:51:32;28.20;;;16.30;;
14167;SDS011;7163;50.626;12.922;2023-04-10T17:56:33;29.40;;;20.80;;
14167;SDS011;7163;50.626;12.922;2023-04-10T18:01:34;27.00;;;16.70;;
14167;SDS011;7163;50.626;12.922;2023-04-10T18:06:34;52.87;;;26.50;;
14167;SDS011;7163;50.626;12.922;2023-04-10T18:11:35;19.10;;;12.33;;
14167;SDS011;7163;50.626;12.922;2023-04-10T18:16:35;21.70;;;12.73;;
14167;SDS011;7163;50.626;12.922;2023-04-10T18:21:36;32.67;;;20.83;;
14167;SDS011;7163;50.626;12.922;2023-04-10T18:26:36;41.90;;;28.07;;
14167;SDS011;7163;50.626;12.922;2023-04-10T18:31:37;19.17;;;12.33;;
14167;SDS011;7163;50.626;12.922;2023-04-10T18:36:37;22.33;;;14.13;;
14167;SDS011;7163;50.626;12.922;2023-04-10T18:41:38;19.10;;;10.90;;
14167;SDS011;7163;50.626;12.922;2023-04-10T18:46:38;17.93;;;11.13;;
14167;SDS011;7163;50.626;12.922;2023-04-10T18:51:39;22.47;;;11.93;;
14167;SDS011;7163;50.626;12.922;2023-04-10T18:56:40;18.73;;;11.70;;
14167;SDS011;7163;50.626;12.922;2023-04-10T19:01:40;17.13;;;11.13;;
14167;SDS011;7163;50.626;12.922;2023-04-10T19:06:41;15.37;;;10.10;;
14167;SDS011;7163;50.626;12.922;2023-04-10T19:11:43;14.20;;;9.37;;
14167;SDS011;7163;50.626;12.922;2023-04-10T19:16:43;13.83;;;9.43;;
14167;SDS011;7163;50.626;12.922;2023-04-10T19:21:44;16.80;;;10.00;;
14167;SDS011;7163;50.626;12.922;2023-04-10T19:26:45;18.43;;;9.67;;
14167;SDS011;7163;50.626;12.922;2023-04-10T19:31:45;17.10;;;10.83;;
14167;SDS011;7163;50.626;12.922;2023-04-10T19:36:45;15.60;;;9.10;;
14167;SDS011;7163;50.626;12.922;2023-04-10T19:41:46;12.87;;;9.03;;
14167;SDS011;7163;50.626;12.922;2023-04-10T19:46:46;15.03;;;8.80;;
14167;SDS011;7163;50.626;12.922;2023-04-10T19:51:47;16.80;;;9.63;;
14167;SDS011;7163;50.626;12.922;2023-04-10T19:56:49;14.97;;;9.23;;
14167;SDS011;7163;50.626;12.922;2023-04-10T20:01:49;13.53;;;8.90;;
14167;SDS011;7163;50.626;12.922;2023-04-10T20:06:50;12.77;;;8.20;;
14167;SDS011;7163;50.626;12.922;2023-04-10T20:11:50;14.30;;;9.50;;
14167;SDS011;7163;50.626;12.922;2023-04-10T20:16:50;12.87;;;8.40;;
14167;SDS011;7163;50.626;12.922;2023-04-10T20:21:51;14.30;;;9.17;;
14167;SDS011;7163;50.626;12.922;2023-04-10T20:26:51;15.67;;;9.83;;
14167;SDS011;7163;50.626;12.922;2023-04-10T20:31:52;15.77;;;9.77;;
14167;SDS011;7163;50.626;12.922;2023-04-10T20:36:52;17.13;;;9.80;;
14167;SDS011;7163;50.626;12.922;2023-04-10T20:41:52;13.93;;;9.20;;
14167;SDS011;7163;50.626;12.922;2023-04-10T20:46:53;14.50;;;9.47;;
14167;SDS011;7163;50.626;12.922;2023-04-10T20:51:53;19.80;;;10.40;;
14167;SDS011;7163;50.626;12.922;2023-04-10T20:56:54;15.47;;;9.60;;
14167;SDS011;7163;50.626;12.922;2023-04-10T21:01:58;16.67;;;9.60;;
14167;SDS011;7163;50.626;12.922;2023-04-10T21:06:59;13.33;;;8.57;;
14167;SDS011;7163;50.626;12.922;2023-04-10T21:12:00;13.30;;;8.13;;
14167;SDS011;7163;50.626;12.922;2023-04-10T21:17:01;12.57;;;7.70;;
14167;SDS011;7163;50.626;12.922;2023-04-10T21:22:01;12.80;;;7.97;;
14167;SDS011;7163;50.626;12.922;2023-04-10T21:27:02;12.60;;;8.13;;
14167;SDS011;7163;50.626;12.922;2023-04-10T21:32:02;12.33;;;8.23;;
14167;SDS011;7163;50.626;12.922;2023-04-10T21:37:02;13.33;;;8.50;;
14167;SDS011;7163;50.626;12.922;2023-04-10T21:42:03;13.00;;;8.60;;
14167;SDS011;7163;50.626;12.922;2023-04-10T21:47:03;11.67;;;7.47;;
14167;SDS011;7163;50.626;12.922;2023-04-10T21:52:04;11.17;;;7.53;;
14167;SDS011;7163;50.626;12.922;2023-04-10T21:57:06;12.70;;;7.87;;
14167;SDS011;7163;50.626;12.922;2023-04-10T22:02:06;11.43;;;7.43;;
14167;SDS011;7163;50.626;12.922;2023-04-10T22:07:07;11.97;;;7.80;;
14167;SDS011;7163;50.626;12.922;2023-04-10T22:12:07;14.13;;;8.13;;
14167;SDS011;7163;50.626;12.922;2023-04-10T22:17:09;13.17;;;8.37;;
14167;SDS011;7163;50.626;12.922;2023-04-10T22:22:09;13.73;;;8.43;;
14167;SDS011;7163;50.626;12.922;2023-04-10T22:27:10;14.67;;;8.87;;
14167;SDS011;7163;50.626;12.922;2023-04-10T22:32:10;13.83;;;8.33;;
14167;SDS011;7163;50.626;12.922;2023-04-10T22:37:10;14.27;;;8.23;;
14167;SDS011;7163;50.626;12.922;2023-04-10T22:42:11;12.73;;;8.30;;
14167;SDS011;7163;50.626;12.922;2023-04-10T22:47:11;14.37;;;8.97;;
14167;SDS011;7163;50.626;12.922;2023-04-10T22:52:12;14.63;;;8.63;;
14167;SDS011;7163;50.626;12.922;2023-04-10T22:57:12;11.87;;;7.87;;
14167;SDS011;7163;50.626;12.922;2023-04-10T23:02:13;11.87;;;7.63;;
14167;SDS011;7163;50.626;12.922;2023-04-10T23:07:15;13.83;;;8.67;;
14167;SDS011;7163;50.626;12.922;2023-04-10T23:12:15;13.43;;;8.37;;
14167;SDS011;7163;50.626;12.922;2023-04-10T23:17:16;12.40;;;7.47;;
14167;SDS011;7163;50.626;12.922;2023-04-10T23:22:18;11.77;;;7.00;;
14167;SDS011;7163;50.626;12.922;2023-04-10T23:27:18;11.77;;;7.40;;
14167;SDS011;7163;50.626;12.922;2023-04-10T23:32:19;12.03;;;7.37;;
14167;SDS011;7163;50.626;12.922;2023-04-10T23:37:20;12.87;;;7.63;;
14167;SDS011;7163;50.626;12.922;2023-04-10T23:42:20;10.70;;;6.80;;
14167;SDS011;7163;50.626;12.922;2023-04-10T23:47:20;10.97;;;6.70;;
14167;SDS011;7163;50.626;12.922;2023-04-10T23:52:21;10.63;;;6.10;;
14167;SDS011;7163;50.626;12.922;2023-04-10T23:57:21;9.33;;;5.93;;
